sensor_id;sensor_type;location;lat;lon;timestamp;P1;durP1;ratioP1;P2;durP2;ratioP2
35745;SDS011;21870;42.812;74.628;2024-03-22T00:01:53;12.18;;;3.72;;
35745;SDS011;21870;42.812;74.628;2024-03-22T00:04:20;7.35;;;3.33;;
35745;SDS011;21870;42.812;74.628;2024-03-22T00:06:46;5.22;;;2.97;;
35745;SDS011;21870;42.812;74.628;2024-03-22T00:09:14;10.70;;;3.28;;
35745;SDS011;21870;42.812;74.628;2024-03-22T00:11:41;8.10;;;3.25;;
35745;SDS011;21870;42.812;74.628;2024-03-22T00:14:08;5.45;;;3.17;;
35745;SDS011;21870;42.812;74.628;2024-03-22T00:16:34;10.02;;;2.97;;
35745;SDS011;21870;42.812;74.628;2024-03-22T00:19:01;8.30;;;4.07;;
35745;SDS011;21870;42.812;74.628;2024-03-22T00:21:27;8.23;;;4.88;;
35745;SDS011;21870;42.812;74.628;2024-03-22T00:23:54;3.88;;;2.95;;
35745;SDS011;21870;42.812;74.628;2024-03-22T00:26:21;9.45;;;4.55;;
35745;SDS011;21870;42.812;74.628;2024-03-22T00:28:47;11.38;;;4.10;;
35745;SDS011;21870;42.812;74.628;2024-03-22T00:31:14;8.38;;;4.13;;
35745;SDS011;21870;42.812;74.628;2024-03-22T00:33:41;7.30;;;3.33;;
35745;SDS011;21870;42.812;74.628;2024-03-22T00:36:07;8.00;;;3.85;;
35745;SDS011;21870;42.812;74.628;2024-03-22T00:38:33;9.68;;;3.38;;
35745;SDS011;21870;42.812;74.628;2024-03-22T00:40:59;7.70;;;3.53;;
35745;SDS011;21870;42.812;74.628;2024-03-22T00:43:26;7.25;;;3.72;;
35745;SDS011;21870;42.812;74.628;2024-03-22T00:45:52;5.25;;;3.85;;
35745;SDS011;21870;42.812;74.628;2024-03-22T00:48:18;6.13;;;4.00;;
35745;SDS011;21870;42.812;74.628;2024-03-22T00:50:44;9.98;;;5.35;;
35745;SDS011;21870;42.812;74.628;2024-03-22T00:53:10;8.25;;;6.00;;
35745;SDS011;21870;42.812;74.628;2024-03-22T00:55:37;7.93;;;6.47;;
35745;SDS011;21870;42.812;74.628;2024-03-22T00:58:03;8.35;;;5.10;;
35745;SDS011;21870;42.812;74.628;2024-03-22T01:00:29;5.78;;;4.53;;
35745;SDS011;21870;42.812;74.628;2024-03-22T01:02:55;14.55;;;5.50;;
35745;SDS011;21870;42.812;74.628;2024-03-22T01:05:21;12.18;;;5.28;;
35745;SDS011;21870;42.812;74.628;2024-03-22T01:07:47;22.70;;;6.85;;
35745;SDS011;21870;42.812;74.628;2024-03-22T01:10:13;13.70;;;5.30;;
35745;SDS011;21870;42.812;74.628;2024-03-22T01:12:39;14.55;;;5.65;;
35745;SDS011;21870;42.812;74.628;2024-03-22T01:15:06;14.38;;;6.10;;
35745;SDS011;21870;42.812;74.628;2024-03-22T01:17:33;14.00;;;5.47;;
35745;SDS011;21870;42.812;74.628;2024-03-22T01:19:59;16.45;;;7.78;;
35745;SDS011;21870;42.812;74.628;2024-03-22T01:22:25;19.10;;;6.97;;
35745;SDS011;21870;42.812;74.628;2024-03-22T01:24:51;14.18;;;6.38;;
35745;SDS011;21870;42.812;74.628;2024-03-22T01:27:18;18.35;;;7.38;;
35745;SDS011;21870;42.812;74.628;2024-03-22T01:29:45;20.67;;;7.97;;
35745;SDS011;21870;42.812;74.628;2024-03-22T01:32:12;19.08;;;7.18;;
35745;SDS011;21870;42.812;74.628;2024-03-22T01:34:38;18.38;;;7.80;;
35745;SDS011;21870;42.812;74.628;2024-03-22T01:37:04;17.45;;;7.53;;
35745;SDS011;21870;42.812;74.628;2024-03-22T01:39:31;18.10;;;8.82;;
35745;SDS011;21870;42.812;74.628;2024-03-22T01:41:57;21.52;;;8.10;;
35745;SDS011;21870;42.812;74.628;2024-03-22T01:44:31;21.55;;;8.55;;
35745;SDS011;21870;42.812;74.628;2024-03-22T01:46:58;13.55;;;8.10;;
35745;SDS011;21870;42.812;74.628;2024-03-22T01:49:27;17.42;;;8.00;;
35745;SDS011;21870;42.812;74.628;2024-03-22T01:51:53;11.57;;;6.72;;
35745;SDS011;21870;42.812;74.628;2024-03-22T01:54:20;17.20;;;7.78;;
35745;SDS011;21870;42.812;74.628;2024-03-22T01:56:46;16.63;;;8.38;;
35745;SDS011;21870;42.812;74.628;2024-03-22T01:59:13;18.27;;;8.07;;
35745;SDS011;21870;42.812;74.628;2024-03-22T02:01:40;11.13;;;6.70;;
35745;SDS011;21870;42.812;74.628;2024-03-22T02:04:06;13.90;;;6.63;;
35745;SDS011;21870;42.812;74.628;2024-03-22T02:06:32;18.20;;;7.35;;
35745;SDS011;21870;42.812;74.628;2024-03-22T02:08:58;22.67;;;8.40;;
35745;SDS011;21870;42.812;74.628;2024-03-22T02:11:25;11.10;;;7.90;;
35745;SDS011;21870;42.812;74.628;2024-03-22T02:13:52;15.52;;;8.02;;
35745;SDS011;21870;42.812;74.628;2024-03-22T02:16:18;23.40;;;8.95;;
35745;SDS011;21870;42.812;74.628;2024-03-22T02:18:44;14.45;;;8.73;;
35745;SDS011;21870;42.812;74.628;2024-03-22T02:21:10;18.35;;;8.68;;
35745;SDS011;21870;42.812;74.628;2024-03-22T02:23:37;20.33;;;7.75;;
35745;SDS011;21870;42.812;74.628;2024-03-22T02:26:04;16.23;;;7.82;;
35745;SDS011;21870;42.812;74.628;2024-03-22T02:28:31;15.35;;;9.27;;
35745;SDS011;21870;42.812;74.628;2024-03-22T02:30:58;19.83;;;8.98;;
35745;SDS011;21870;42.812;74.628;2024-03-22T02:33:25;21.73;;;8.95;;
35745;SDS011;21870;42.812;74.628;2024-03-22T02:35:51;13.98;;;8.65;;
35745;SDS011;21870;42.812;74.628;2024-03-22T02:38:17;11.02;;;8.23;;
35745;SDS011;21870;42.812;74.628;2024-03-22T02:40:44;14.60;;;9.15;;
35745;SDS011;21870;42.812;74.628;2024-03-22T02:43:11;12.95;;;8.60;;
35745;SDS011;21870;42.812;74.628;2024-03-22T02:45:37;11.70;;;7.22;;
35745;SDS011;21870;42.812;74.628;2024-03-22T02:48:04;10.80;;;8.52;;
35745;SDS011;21870;42.812;74.628;2024-03-22T02:50:33;14.20;;;8.27;;
35745;SDS011;21870;42.812;74.628;2024-03-22T02:53:00;14.98;;;9.00;;
35745;SDS011;21870;42.812;74.628;2024-03-22T02:55:27;8.40;;;7.32;;
35745;SDS011;21870;42.812;74.628;2024-03-22T02:57:53;13.45;;;8.27;;
35745;SDS011;21870;42.812;74.628;2024-03-22T03:00:19;14.55;;;8.98;;
35745;SDS011;21870;42.812;74.628;2024-03-22T03:02:45;13.45;;;8.20;;
35745;SDS011;21870;42.812;74.628;2024-03-22T03:05:11;16.05;;;9.98;;
35745;SDS011;21870;42.812;74.628;2024-03-22T03:07:37;14.63;;;10.45;;
35745;SDS011;21870;42.812;74.628;2024-03-22T03:10:04;14.30;;;11.15;;
35745;SDS011;21870;42.812;74.628;2024-03-22T03:12:30;17.08;;;11.90;;
35745;SDS011;21870;42.812;74.628;2024-03-22T03:14:56;18.35;;;12.43;;
35745;SDS011;21870;42.812;74.628;2024-03-22T03:17:22;15.93;;;11.40;;
35745;SDS011;21870;42.812;74.628;2024-03-22T03:19:48;19.10;;;9.35;;
35745;SDS011;21870;42.812;74.628;2024-03-22T03:22:14;19.08;;;11.15;;
35745;SDS011;21870;42.812;74.628;2024-03-22T03:24:40;17.05;;;9.15;;
35745;SDS011;21870;42.812;74.628;2024-03-22T03:27:06;13.18;;;7.90;;
35745;SDS011;21870;42.812;74.628;2024-03-22T03:29:32;21.80;;;8.15;;
35745;SDS011;21870;42.812;74.628;2024-03-22T03:31:58;31.95;;;21.48;;
35745;SDS011;21870;42.812;74.628;2024-03-22T03:34:27;21.98;;;9.45;;
35745;SDS011;21870;42.812;74.628;2024-03-22T03:36:53;19.30;;;9.00;;
35745;SDS011;21870;42.812;74.628;2024-03-22T03:39:19;14.70;;;7.85;;
35745;SDS011;21870;42.812;74.628;2024-03-22T03:41:45;16.23;;;8.02;;
35745;SDS011;21870;42.812;74.628;2024-03-22T03:44:11;22.60;;;10.27;;
35745;SDS011;21870;42.812;74.628;2024-03-22T03:46:37;20.83;;;9.40;;
35745;SDS011;21870;42.812;74.628;2024-03-22T03:49:03;19.35;;;10.20;;
35745;SDS011;21870;42.812;74.628;2024-03-22T03:51:29;22.58;;;8.80;;
35745;SDS011;21870;42.812;74.628;2024-03-22T03:53:55;18.23;;;9.25;;
35745;SDS011;21870;42.812;74.628;2024-03-22T03:56:21;19.15;;;7.68;;
35745;SDS011;21870;42.812;74.628;2024-03-22T03:58:47;14.00;;;8.38;;
35745;SDS011;21870;42.812;74.628;2024-03-22T04:01:13;18.85;;;9.00;;
35745;SDS011;21870;42.812;74.628;2024-03-22T04:03:39;13.52;;;7.53;;
35745;SDS011;21870;42.812;74.628;2024-03-22T04:06:05;21.45;;;8.68;;
35745;SDS011;21870;42.812;74.628;2024-03-22T04:08:32;15.15;;;7.97;;
35745;SDS011;21870;42.812;74.628;2024-03-22T04:10:58;14.05;;;7.53;;
35745;SDS011;21870;42.812;74.628;2024-03-22T04:13:24;18.88;;;7.53;;
35745;SDS011;21870;42.812;74.628;2024-03-22T04:15:51;12.23;;;6.55;;
35745;SDS011;21870;42.812;74.628;2024-03-22T04:18:17;17.25;;;6.70;;
35745;SDS011;21870;42.812;74.628;2024-03-22T04:20:52;18.73;;;6.93;;
35745;SDS011;21870;42.812;74.628;2024-03-22T04:23:23;15.30;;;7.13;;
35745;SDS011;21870;42.812;74.628;2024-03-22T04:25:53;13.77;;;5.75;;
35745;SDS011;21870;42.812;74.628;2024-03-22T04:28:20;12.93;;;6.57;;
35745;SDS011;21870;42.812;74.628;2024-03-22T04:31:02;10.65;;;4.10;;
35745;SDS011;21870;42.812;74.628;2024-03-22T04:33:30;8.55;;;3.50;;
35745;SDS011;21870;42.812;74.628;2024-03-22T04:35:57;5.65;;;2.95;;
35745;SDS011;21870;42.812;74.628;2024-03-22T04:38:25;4.07;;;2.90;;
35745;SDS011;21870;42.812;74.628;2024-03-22T04:40:51;8.63;;;3.53;;
35745;SDS011;21870;42.812;74.628;2024-03-22T04:43:18;6.60;;;3.55;;
35745;SDS011;21870;42.812;74.628;2024-03-22T04:45:45;4.93;;;3.47;;
35745;SDS011;21870;42.812;74.628;2024-03-22T04:48:12;7.75;;;4.10;;
35745;SDS011;21870;42.812;74.628;2024-03-22T04:50:40;7.13;;;2.92;;
35745;SDS011;21870;42.812;74.628;2024-03-22T04:53:06;5.50;;;3.03;;
35745;SDS011;21870;42.812;74.628;2024-03-22T04:55:32;5.47;;;3.15;;
35745;SDS011;21870;42.812;74.628;2024-03-22T04:57:59;6.93;;;3.03;;
35745;SDS011;21870;42.812;74.628;2024-03-22T05:00:26;5.07;;;2.47;;
35745;SDS011;21870;42.812;74.628;2024-03-22T05:02:52;6.43;;;3.30;;
35745;SDS011;21870;42.812;74.628;2024-03-22T05:05:18;5.50;;;3.25;;
35745;SDS011;21870;42.812;74.628;2024-03-22T05:07:45;5.30;;;3.40;;
35745;SDS011;21870;42.812;74.628;2024-03-22T05:10:11;11.43;;;3.50;;
35745;SDS011;21870;42.812;74.628;2024-03-22T05:12:37;7.38;;;3.80;;
35745;SDS011;21870;42.812;74.628;2024-03-22T05:15:05;7.68;;;3.83;;
35745;SDS011;21870;42.812;74.628;2024-03-22T05:17:31;5.15;;;3.47;;
35745;SDS011;21870;42.812;74.628;2024-03-22T05:19:59;7.18;;;3.65;;
35745;SDS011;21870;42.812;74.628;2024-03-22T05:22:25;5.95;;;3.60;;
35745;SDS011;21870;42.812;74.628;2024-03-22T05:24:51;5.53;;;3.72;;
35745;SDS011;21870;42.812;74.628;2024-03-22T05:27:17;5.60;;;3.72;;
35745;SDS011;21870;42.812;74.628;2024-03-22T05:29:43;8.88;;;5.30;;
35745;SDS011;21870;42.812;74.628;2024-03-22T05:32:10;9.20;;;6.10;;
35745;SDS011;21870;42.812;74.628;2024-03-22T05:34:36;8.23;;;5.78;;
35745;SDS011;21870;42.812;74.628;2024-03-22T05:37:02;11.30;;;6.22;;
35745;SDS011;21870;42.812;74.628;2024-03-22T05:39:28;11.30;;;5.57;;
35745;SDS011;21870;42.812;74.628;2024-03-22T05:41:54;12.70;;;6.32;;
35745;SDS011;21870;42.812;74.628;2024-03-22T05:44:23;12.93;;;6.55;;
35745;SDS011;21870;42.812;74.628;2024-03-22T05:46:49;10.23;;;5.55;;
35745;SDS011;21870;42.812;74.628;2024-03-22T05:49:15;8.68;;;4.13;;
35745;SDS011;21870;42.812;74.628;2024-03-22T05:51:42;4.10;;;2.70;;
35745;SDS011;21870;42.812;74.628;2024-03-22T05:54:08;3.00;;;2.33;;
35745;SDS011;21870;42.812;74.628;2024-03-22T05:56:36;3.42;;;2.38;;
35745;SDS011;21870;42.812;74.628;2024-03-22T05:59:02;3.45;;;2.00;;
35745;SDS011;21870;42.812;74.628;2024-03-22T06:01:28;3.80;;;2.33;;
35745;SDS011;21870;42.812;74.628;2024-03-22T06:03:54;2.50;;;2.28;;
35745;SDS011;21870;42.812;74.628;2024-03-22T06:06:20;1.70;;;1.60;;
35745;SDS011;21870;42.812;74.628;2024-03-22T06:08:52;2.83;;;2.15;;
35745;SDS011;21870;42.812;74.628;2024-03-22T06:11:19;2.28;;;2.08;;
35745;SDS011;21870;42.812;74.628;2024-03-22T06:13:48;3.97;;;2.08;;
35745;SDS011;21870;42.812;74.628;2024-03-22T06:16:16;2.40;;;1.92;;
35745;SDS011;21870;42.812;74.628;2024-03-22T06:18:42;8.90;;;1.90;;
35745;SDS011;21870;42.812;74.628;2024-03-22T06:21:08;10.38;;;2.17;;
35745;SDS011;21870;42.812;74.628;2024-03-22T06:23:34;7.70;;;1.98;;
35745;SDS011;21870;42.812;74.628;2024-03-22T06:26:00;5.15;;;2.20;;
35745;SDS011;21870;42.812;74.628;2024-03-22T06:28:27;7.22;;;2.92;;
35745;SDS011;21870;42.812;74.628;2024-03-22T06:30:54;11.18;;;2.90;;
35745;SDS011;21870;42.812;74.628;2024-03-22T06:33:20;10.55;;;3.30;;
35745;SDS011;21870;42.812;74.628;2024-03-22T06:35:46;14.85;;;2.97;;
35745;SDS011;21870;42.812;74.628;2024-03-22T06:38:13;12.25;;;2.10;;
35745;SDS011;21870;42.812;74.628;2024-03-22T06:40:39;9.38;;;2.60;;
35745;SDS011;21870;42.812;74.628;2024-03-22T06:43:05;9.77;;;2.58;;
35745;SDS011;21870;42.812;74.628;2024-03-22T06:45:31;12.30;;;2.63;;
35745;SDS011;21870;42.812;74.628;2024-03-22T06:47:57;19.92;;;2.83;;
35745;SDS011;21870;42.812;74.628;2024-03-22T06:50:23;16.45;;;3.33;;
35745;SDS011;21870;42.812;74.628;2024-03-22T06:52:50;17.42;;;2.80;;
35745;SDS011;21870;42.812;74.628;2024-03-22T06:55:17;15.52;;;2.63;;
35745;SDS011;21870;42.812;74.628;2024-03-22T06:57:43;12.07;;;2.55;;
35745;SDS011;21870;42.812;74.628;2024-03-22T07:00:11;17.70;;;3.53;;
35745;SDS011;21870;42.812;74.628;2024-03-22T07:02:38;17.10;;;3.10;;
35745;SDS011;21870;42.812;74.628;2024-03-22T07:05:05;18.35;;;4.05;;
35745;SDS011;21870;42.812;74.628;2024-03-22T07:07:35;11.05;;;3.13;;
35745;SDS011;21870;42.812;74.628;2024-03-22T07:10:02;13.70;;;3.30;;
35745;SDS011;21870;42.812;74.628;2024-03-22T07:12:30;16.88;;;2.92;;
35745;SDS011;21870;42.812;74.628;2024-03-22T07:14:57;14.77;;;2.60;;
35745;SDS011;21870;42.812;74.628;2024-03-22T07:17:24;9.48;;;2.70;;
35745;SDS011;21870;42.812;74.628;2024-03-22T07:19:51;15.85;;;2.75;;
35745;SDS011;21870;42.812;74.628;2024-03-22T07:22:17;17.65;;;3.55;;
35745;SDS011;21870;42.812;74.628;2024-03-22T07:24:43;23.02;;;3.90;;
35745;SDS011;21870;42.812;74.628;2024-03-22T07:27:10;11.77;;;3.80;;
35745;SDS011;21870;42.812;74.628;2024-03-22T07:29:36;13.68;;;2.83;;
35745;SDS011;21870;42.812;74.628;2024-03-22T07:32:03;20.10;;;3.83;;
35745;SDS011;21870;42.812;74.628;2024-03-22T07:34:29;12.88;;;3.38;;
35745;SDS011;21870;42.812;74.628;2024-03-22T07:36:55;20.20;;;4.00;;
35745;SDS011;21870;42.812;74.628;2024-03-22T07:39:21;17.35;;;3.97;;
35745;SDS011;21870;42.812;74.628;2024-03-22T07:41:47;18.60;;;4.53;;
35745;SDS011;21870;42.812;74.628;2024-03-22T07:44:14;22.80;;;5.32;;
35745;SDS011;21870;42.812;74.628;2024-03-22T07:46:43;23.30;;;4.60;;
35745;SDS011;21870;42.812;74.628;2024-03-22T07:49:11;21.63;;;4.82;;
35745;SDS011;21870;42.812;74.628;2024-03-22T07:51:37;19.23;;;5.03;;
35745;SDS011;21870;42.812;74.628;2024-03-22T07:54:03;17.95;;;4.97;;
35745;SDS011;21870;42.812;74.628;2024-03-22T07:56:29;16.50;;;4.28;;
35745;SDS011;21870;42.812;74.628;2024-03-22T07:58:55;13.98;;;5.13;;
35745;SDS011;21870;42.812;74.628;2024-03-22T08:01:22;14.00;;;4.35;;
35745;SDS011;21870;42.812;74.628;2024-03-22T08:03:49;16.85;;;4.90;;
35745;SDS011;21870;42.812;74.628;2024-03-22T08:06:16;16.50;;;4.45;;
35745;SDS011;21870;42.812;74.628;2024-03-22T08:08:42;13.75;;;3.33;;
35745;SDS011;21870;42.812;74.628;2024-03-22T08:11:08;17.23;;;3.92;;
35745;SDS011;21870;42.812;74.628;2024-03-22T08:13:34;15.05;;;3.65;;
35745;SDS011;21870;42.812;74.628;2024-03-22T08:16:00;16.92;;;3.97;;
35745;SDS011;21870;42.812;74.628;2024-03-22T08:18:27;16.67;;;4.65;;
35745;SDS011;21870;42.812;74.628;2024-03-22T08:20:53;18.40;;;4.15;;
35745;SDS011;21870;42.812;74.628;2024-03-22T08:23:19;9.77;;;3.60;;
35745;SDS011;21870;42.812;74.628;2024-03-22T08:25:48;14.77;;;4.32;;
35745;SDS011;21870;42.812;74.628;2024-03-22T08:28:14;13.40;;;3.88;;
35745;SDS011;21870;42.812;74.628;2024-03-22T08:30:41;14.75;;;3.90;;
35745;SDS011;21870;42.812;74.628;2024-03-22T08:33:07;20.55;;;5.20;;
35745;SDS011;21870;42.812;74.628;2024-03-22T08:35:34;9.80;;;4.03;;
35745;SDS011;21870;42.812;74.628;2024-03-22T08:38:00;8.30;;;3.00;;
35745;SDS011;21870;42.812;74.628;2024-03-22T08:40:26;14.93;;;3.03;;
35745;SDS011;21870;42.812;74.628;2024-03-22T08:42:52;7.45;;;3.22;;
35745;SDS011;21870;42.812;74.628;2024-03-22T08:45:18;10.35;;;4.07;;
35745;SDS011;21870;42.812;74.628;2024-03-22T08:47:44;11.35;;;3.45;;
35745;SDS011;21870;42.812;74.628;2024-03-22T08:50:11;13.57;;;4.00;;
35745;SDS011;21870;42.812;74.628;2024-03-22T08:52:37;10.05;;;3.20;;
35745;SDS011;21870;42.812;74.628;2024-03-22T08:55:03;10.65;;;3.10;;
35745;SDS011;21870;42.812;74.628;2024-03-22T08:57:33;8.50;;;3.42;;
35745;SDS011;21870;42.812;74.628;2024-03-22T08:59:59;11.13;;;3.45;;
35745;SDS011;21870;42.812;74.628;2024-03-22T09:02:25;14.35;;;3.15;;
35745;SDS011;21870;42.812;74.628;2024-03-22T09:04:52;9.27;;;3.10;;
35745;SDS011;21870;42.812;74.628;2024-03-22T09:07:19;17.00;;;3.63;;
35745;SDS011;21870;42.812;74.628;2024-03-22T09:09:45;12.27;;;3.45;;
35745;SDS011;21870;42.812;74.628;2024-03-22T09:12:11;11.65;;;3.20;;
35745;SDS011;21870;42.812;74.628;2024-03-22T09:14:37;10.55;;;3.20;;
35745;SDS011;21870;42.812;74.628;2024-03-22T09:17:03;8.82;;;3.83;;
35745;SDS011;21870;42.812;74.628;2024-03-22T09:19:29;9.77;;;3.85;;
35745;SDS011;21870;42.812;74.628;2024-03-22T09:21:56;10.18;;;3.88;;
35745;SDS011;21870;42.812;74.628;2024-03-22T09:24:22;7.00;;;4.78;;
35745;SDS011;21870;42.812;74.628;2024-03-22T09:26:48;8.88;;;4.72;;
35745;SDS011;21870;42.812;74.628;2024-03-22T09:29:14;13.55;;;5.55;;
35745;SDS011;21870;42.812;74.628;2024-03-22T09:31:40;10.32;;;5.25;;
35745;SDS011;21870;42.812;74.628;2024-03-22T09:34:06;9.70;;;4.43;;
35745;SDS011;21870;42.812;74.628;2024-03-22T09:36:32;12.95;;;4.75;;
35745;SDS011;21870;42.812;74.628;2024-03-22T09:39:01;9.15;;;4.47;;
35745;SDS011;21870;42.812;74.628;2024-03-22T09:41:27;12.02;;;5.00;;
35745;SDS011;21870;42.812;74.628;2024-03-22T09:43:57;10.38;;;4.38;;
35745;SDS011;21870;42.812;74.628;2024-03-22T09:46:27;12.25;;;5.63;;
35745;SDS011;21870;42.812;74.628;2024-03-22T09:48:56;11.43;;;5.57;;
35745;SDS011;21870;42.812;74.628;2024-03-22T09:51:24;12.35;;;5.93;;
35745;SDS011;21870;42.812;74.628;2024-03-22T09:53:50;13.65;;;4.97;;
35745;SDS011;21870;42.812;74.628;2024-03-22T09:56:17;10.88;;;5.32;;
35745;SDS011;21870;42.812;74.628;2024-03-22T09:58:47;15.55;;;6.28;;
35745;SDS011;21870;42.812;74.628;2024-03-22T10:01:13;12.80;;;6.15;;
35745;SDS011;21870;42.812;74.628;2024-03-22T10:03:40;11.13;;;6.60;;
35745;SDS011;21870;42.812;74.628;2024-03-22T10:06:07;16.23;;;7.95;;
35745;SDS011;21870;42.812;74.628;2024-03-22T10:08:33;18.48;;;7.82;;
35745;SDS011;21870;42.812;74.628;2024-03-22T10:11:02;12.82;;;8.07;;
35745;SDS011;21870;42.812;74.628;2024-03-22T10:13:28;15.43;;;7.88;;
35745;SDS011;21870;42.812;74.628;2024-03-22T10:15:54;19.40;;;8.10;;
35745;SDS011;21870;42.812;74.628;2024-03-22T10:18:22;14.68;;;7.75;;
35745;SDS011;21870;42.812;74.628;2024-03-22T10:20:58;15.30;;;8.70;;
35745;SDS011;21870;42.812;74.628;2024-03-22T10:23:25;16.50;;;8.77;;
35745;SDS011;21870;42.812;74.628;2024-03-22T10:25:51;23.50;;;9.30;;
35745;SDS011;21870;42.812;74.628;2024-03-22T10:28:18;17.25;;;8.38;;
35745;SDS011;21870;42.812;74.628;2024-03-22T10:30:44;15.35;;;8.48;;
35745;SDS011;21870;42.812;74.628;2024-03-22T10:33:13;12.77;;;8.68;;
35745;SDS011;21870;42.812;74.628;2024-03-22T10:35:41;21.80;;;9.23;;
35745;SDS011;21870;42.812;74.628;2024-03-22T10:38:09;21.17;;;8.70;;
35745;SDS011;21870;42.812;74.628;2024-03-22T10:40:38;30.25;;;10.60;;
35745;SDS011;21870;42.812;74.628;2024-03-22T10:43:08;15.88;;;8.82;;
35745;SDS011;21870;42.812;74.628;2024-03-22T10:45:34;19.98;;;10.13;;
35745;SDS011;21870;42.812;74.628;2024-03-22T10:48:01;21.48;;;10.45;;
35745;SDS011;21870;42.812;74.628;2024-03-22T10:50:33;18.90;;;9.68;;
35745;SDS011;21870;42.812;74.628;2024-03-22T10:53:04;16.23;;;9.15;;
35745;SDS011;21870;42.812;74.628;2024-03-22T10:55:35;22.92;;;9.63;;
35745;SDS011;21870;42.812;74.628;2024-03-22T10:58:07;16.58;;;8.23;;
35745;SDS011;21870;42.812;74.628;2024-03-22T11:00:41;16.63;;;8.18;;
35745;SDS011;21870;42.812;74.628;2024-03-22T11:03:08;20.10;;;9.48;;
35745;SDS011;21870;42.812;74.628;2024-03-22T11:05:34;15.10;;;9.00;;
35745;SDS011;21870;42.812;74.628;2024-03-22T11:08:13;19.42;;;11.13;;
35745;SDS011;21870;42.812;74.628;2024-03-22T11:10:49;17.08;;;10.63;;
35745;SDS011;21870;42.812;74.628;2024-03-22T11:13:16;18.73;;;10.35;;
35745;SDS011;21870;42.812;74.628;2024-03-22T11:15:42;22.25;;;9.68;;
35745;SDS011;21870;42.812;74.628;2024-03-22T11:18:09;20.65;;;8.82;;
35745;SDS011;21870;42.812;74.628;2024-03-22T11:20:38;23.55;;;7.82;;
35745;SDS011;21870;42.812;74.628;2024-03-22T11:23:04;16.15;;;6.20;;
35745;SDS011;21870;42.812;74.628;2024-03-22T11:25:33;17.83;;;6.32;;
35745;SDS011;21870;42.812;74.628;2024-03-22T11:28:00;20.15;;;6.93;;
35745;SDS011;21870;42.812;74.628;2024-03-22T11:30:30;18.70;;;5.88;;
35745;SDS011;21870;42.812;74.628;2024-03-22T11:33:00;22.42;;;7.30;;
35745;SDS011;21870;42.812;74.628;2024-03-22T11:35:33;23.17;;;6.25;;
35745;SDS011;21870;42.812;74.628;2024-03-22T11:37:59;22.40;;;4.57;;
35745;SDS011;21870;42.812;74.628;2024-03-22T11:40:26;17.83;;;4.82;;
35745;SDS011;21870;42.812;74.628;2024-03-22T11:42:53;15.57;;;4.28;;
35745;SDS011;21870;42.812;74.628;2024-03-22T11:45:20;9.63;;;4.35;;
35745;SDS011;21870;42.812;74.628;2024-03-22T11:47:48;22.55;;;5.25;;
35745;SDS011;21870;42.812;74.628;2024-03-22T11:50:14;13.02;;;4.50;;
35745;SDS011;21870;42.812;74.628;2024-03-22T11:52:46;14.68;;;4.50;;
35745;SDS011;21870;42.812;74.628;2024-03-22T11:55:13;11.73;;;4.75;;
35745;SDS011;21870;42.812;74.628;2024-03-22T11:57:40;12.63;;;5.05;;
35745;SDS011;21870;42.812;74.628;2024-03-22T12:00:06;13.27;;;5.78;;
35745;SDS011;21870;42.812;74.628;2024-03-22T12:02:38;11.27;;;5.05;;
35745;SDS011;21870;42.812;74.628;2024-03-22T12:05:04;12.90;;;5.63;;
35745;SDS011;21870;42.812;74.628;2024-03-22T12:07:31;14.45;;;5.30;;
35745;SDS011;21870;42.812;74.628;2024-03-22T12:09:58;11.40;;;5.03;;
35745;SDS011;21870;42.812;74.628;2024-03-22T12:12:24;14.07;;;3.80;;
35745;SDS011;21870;42.812;74.628;2024-03-22T12:14:51;16.73;;;5.55;;
35745;SDS011;21870;42.812;74.628;2024-03-22T12:17:18;13.25;;;5.15;;
35745;SDS011;21870;42.812;74.628;2024-03-22T12:19:44;15.90;;;5.30;;
35745;SDS011;21870;42.812;74.628;2024-03-22T12:22:10;20.33;;;5.22;;
35745;SDS011;21870;42.812;74.628;2024-03-22T12:24:36;8.98;;;4.05;;
35745;SDS011;21870;42.812;74.628;2024-03-22T12:27:03;13.20;;;4.97;;
35745;SDS011;21870;42.812;74.628;2024-03-22T12:29:32;14.23;;;4.15;;
35745;SDS011;21870;42.812;74.628;2024-03-22T12:31:58;12.98;;;4.70;;
35745;SDS011;21870;42.812;74.628;2024-03-22T12:34:32;16.02;;;5.15;;
35745;SDS011;21870;42.812;74.628;2024-03-22T12:36:59;11.48;;;4.55;;
35745;SDS011;21870;42.812;74.628;2024-03-22T12:39:25;14.80;;;6.40;;
35745;SDS011;21870;42.812;74.628;2024-03-22T12:41:51;14.35;;;7.13;;
35745;SDS011;21870;42.812;74.628;2024-03-22T12:44:18;10.32;;;6.80;;
35745;SDS011;21870;42.812;74.628;2024-03-22T12:46:45;14.57;;;7.18;;
35745;SDS011;21870;42.812;74.628;2024-03-22T12:49:11;9.65;;;6.97;;
35745;SDS011;21870;42.812;74.628;2024-03-22T12:51:37;9.05;;;6.95;;
35745;SDS011;21870;42.812;74.628;2024-03-22T12:54:04;8.95;;;5.22;;
35745;SDS011;21870;42.812;74.628;2024-03-22T12:56:30;9.23;;;6.65;;
35745;SDS011;21870;42.812;74.628;2024-03-22T12:58:57;10.57;;;6.13;;
35745;SDS011;21870;42.812;74.628;2024-03-22T13:01:23;8.50;;;5.72;;
35745;SDS011;21870;42.812;74.628;2024-03-22T13:03:49;7.35;;;5.07;;
35745;SDS011;21870;42.812;74.628;2024-03-22T13:06:15;14.55;;;5.45;;
35745;SDS011;21870;42.812;74.628;2024-03-22T13:08:41;10.50;;;6.65;;
35745;SDS011;21870;42.812;74.628;2024-03-22T13:11:07;11.38;;;5.97;;
35745;SDS011;21870;42.812;74.628;2024-03-22T13:13:34;12.30;;;6.68;;
35745;SDS011;21870;42.812;74.628;2024-03-22T13:16:01;11.95;;;6.72;;
35745;SDS011;21870;42.812;74.628;2024-03-22T13:18:28;13.00;;;6.78;;
35745;SDS011;21870;42.812;74.628;2024-03-22T13:20:54;11.52;;;7.00;;
35745;SDS011;21870;42.812;74.628;2024-03-22T13:23:20;11.35;;;6.40;;
35745;SDS011;21870;42.812;74.628;2024-03-22T13:25:46;18.00;;;7.63;;
35745;SDS011;21870;42.812;74.628;2024-03-22T13:28:12;7.38;;;6.70;;
35745;SDS011;21870;42.812;74.628;2024-03-22T13:30:39;10.15;;;7.57;;
35745;SDS011;21870;42.812;74.628;2024-03-22T13:33:05;9.48;;;6.97;;
35745;SDS011;21870;42.812;74.628;2024-03-22T13:35:33;10.73;;;7.97;;
35745;SDS011;21870;42.812;74.628;2024-03-22T13:37:59;12.00;;;6.97;;
35745;SDS011;21870;42.812;74.628;2024-03-22T13:40:26;12.05;;;9.10;;
35745;SDS011;21870;42.812;74.628;2024-03-22T13:42:53;13.48;;;11.25;;
35745;SDS011;21870;42.812;74.628;2024-03-22T13:45:19;11.75;;;9.40;;
35745;SDS011;21870;42.812;74.628;2024-03-22T13:47:45;11.20;;;8.18;;
35745;SDS011;21870;42.812;74.628;2024-03-22T13:50:11;10.32;;;8.60;;
35745;SDS011;21870;42.812;74.628;2024-03-22T13:52:37;8.63;;;7.30;;
35745;SDS011;21870;42.812;74.628;2024-03-22T13:55:04;9.40;;;7.78;;
35745;SDS011;21870;42.812;74.628;2024-03-22T13:57:30;11.40;;;7.10;;
35745;SDS011;21870;42.812;74.628;2024-03-22T13:59:57;8.23;;;6.55;;
35745;SDS011;21870;42.812;74.628;2024-03-22T14:02:24;8.23;;;7.18;;
35745;SDS011;21870;42.812;74.628;2024-03-22T14:04:50;10.10;;;7.47;;
35745;SDS011;21870;42.812;74.628;2024-03-22T14:07:17;8.45;;;7.60;;
35745;SDS011;21870;42.812;74.628;2024-03-22T14:09:43;11.18;;;8.80;;
35745;SDS011;21870;42.812;74.628;2024-03-22T14:12:10;10.52;;;9.23;;
35745;SDS011;21870;42.812;74.628;2024-03-22T14:14:36;9.48;;;8.45;;
35745;SDS011;21870;42.812;74.628;2024-03-22T14:17:02;7.55;;;6.82;;
35745;SDS011;21870;42.812;74.628;2024-03-22T14:19:28;6.85;;;5.82;;
35745;SDS011;21870;42.812;74.628;2024-03-22T14:21:54;7.13;;;6.43;;